createdAt,value
2018-07-12T00:00:55.213Z,0.00
2018-07-12T00:01:55.233Z,0.00
2018-07-12T00:02:55.258Z,0.00
2018-07-12T00:03:55.281Z,0.00
2018-07-12T00:04:55.308Z,0.00
2018-07-12T00:05:55.336Z,0.00
2018-07-12T00:06:55.359Z,0.00
2018-07-12T00:07:55.388Z,0.00
2018-07-12T00:08:55.415Z,0.00
2018-07-12T00:09:55.446Z,0.00
2018-07-12T00:10:55.469Z,0.00
2018-07-12T00:11:55.484Z,0.00
2018-07-12T00:12:55.531Z,0.00
2018-07-12T00:13:55.536Z,0.00
2018-07-12T00:14:55.562Z,0.00
2018-07-12T00:15:55.586Z,0.00
2018-07-12T00:16:55.614Z,0.00
2018-07-12T00:17:55.649Z,0.00
2018-07-12T00:18:55.667Z,0.00
2018-07-12T00:19:55.697Z,0.00
2018-07-12T00:20:55.717Z,0.00
2018-07-12T00:21:55.741Z,0.00
2018-07-12T00:22:55.772Z,0.00
2018-07-12T00:23:55.794Z,0.00
2018-07-12T00:24:55.825Z,0.00
2018-07-12T00:25:55.838Z,0.00
2018-07-12T00:26:55.888Z,0.00
2018-07-12T00:27:55.893Z,0.00
2018-07-12T00:28:55.930Z,0.00
2018-07-12T00:29:55.949Z,0.00
2018-07-12T00:30:55.971Z,0.00
2018-07-12T00:31:55.996Z,0.00
2018-07-12T00:32:56.017Z,0.00
2018-07-12T00:33:56.046Z,0.00
2018-07-12T00:34:56.076Z,0.00
2018-07-12T00:35:56.107Z,0.00
2018-07-12T00:36:56.128Z,0.00
2018-07-12T00:37:56.148Z,0.00
2018-07-12T00:38:56.177Z,0.00
2018-07-12T00:39:56.191Z,0.00
2018-07-12T00:40:56.232Z,0.00
2018-07-12T00:41:56.251Z,0.00
2018-07-12T00:42:56.274Z,0.00
2018-07-12T00:43:56.309Z,0.00
2018-07-12T00:44:56.329Z,0.00
2018-07-12T00:45:56.352Z,0.00
2018-07-12T00:46:56.371Z,0.00
2018-07-12T00:47:56.400Z,0.00
2018-07-12T00:48:56.431Z,0.00
2018-07-12T00:49:56.458Z,0.00
2018-07-12T00:50:56.479Z,0.00
2018-07-12T00:51:56.511Z,0.00
2018-07-12T00:52:56.555Z,0.00
2018-07-12T00:53:56.557Z,0.00
2018-07-12T00:55:56.609Z,0.00
2018-07-12T00:56:56.636Z,0.00
2018-07-12T00:57:56.652Z,0.00
2018-07-12T00:58:56.688Z,0.00
2018-07-12T00:59:56.712Z,0.00
2018-07-12T01:00:56.738Z,0.00
2018-07-12T01:01:56.756Z,0.00
2018-07-12T01:02:56.784Z,0.00
2018-07-12T01:03:56.814Z,0.00
2018-07-12T01:04:56.837Z,0.00
2018-07-12T01:05:56.856Z,0.00
2018-07-12T01:06:56.886Z,0.00
2018-07-12T01:07:56.909Z,0.00
2018-07-12T01:08:56.936Z,0.00
2018-07-12T01:09:56.963Z,0.00
2018-07-12T01:10:56.986Z,0.00
2018-07-12T01:11:57.014Z,0.00
2018-07-12T01:12:57.036Z,0.00
2018-07-12T01:13:57.064Z,0.00
2018-07-12T01:15:57.116Z,0.00
2018-07-12T01:16:57.143Z,0.00
2018-07-12T01:17:57.157Z,0.00
2018-07-12T01:18:57.189Z,0.00
2018-07-12T01:19:57.223Z,0.00
2018-07-12T01:20:57.243Z,0.00
2018-07-12T01:21:57.268Z,0.00
2018-07-12T01:22:57.289Z,0.00
2018-07-12T01:23:57.320Z,0.00
2018-07-12T01:24:57.342Z,0.00
2018-07-12T01:25:57.375Z,0.00
2018-07-12T01:26:57.393Z,0.00
2018-07-12T01:27:57.417Z,0.00
2018-07-12T01:28:57.446Z,0.00
2018-07-12T01:29:57.468Z,0.00
2018-07-12T01:30:57.503Z,0.00
2018-07-12T01:31:57.520Z,0.00
2018-07-12T01:32:57.547Z,0.00
2018-07-12T01:33:57.569Z,0.00
2018-07-12T01:34:57.596Z,0.00
2018-07-12T01:35:57.622Z,0.00
2018-07-12T01:36:57.646Z,0.00
2018-07-12T01:37:57.665Z,0.00
2018-07-12T01:38:57.696Z,0.00
2018-07-12T01:39:57.723Z,0.00
2018-07-12T01:40:57.756Z,0.00
2018-07-12T01:41:57.773Z,0.00
2018-07-12T01:42:57.804Z,0.00
2018-07-12T01:43:57.826Z,0.00
2018-07-12T01:44:57.847Z,0.00
2018-07-12T01:45:57.885Z,0.00
2018-07-12T01:46:57.897Z,0.00
2018-07-12T01:47:57.921Z,0.00
2018-07-12T01:48:57.948Z,0.00
2018-07-12T01:49:57.981Z,0.00
2018-07-12T01:50:58.003Z,0.00
2018-07-12T01:51:58.029Z,0.00
2018-07-12T01:52:58.060Z,0.00
2018-07-12T01:53:58.073Z,0.00
2018-07-12T01:54:58.094Z,0.00
2018-07-12T01:55:58.120Z,0.00
2018-07-12T01:56:58.756Z,0.00
2018-07-12T01:57:58.188Z,0.00
2018-07-12T01:58:58.200Z,0.00
2018-07-12T01:59:58.239Z,0.00
2018-07-12T02:00:58.249Z,0.00
2018-07-12T02:01:58.275Z,0.00
2018-07-12T02:02:58.303Z,0.00
2018-07-12T02:03:58.326Z,0.00
2018-07-12T02:04:58.355Z,0.00
2018-07-12T02:05:58.378Z,0.00
2018-07-12T02:06:58.405Z,0.00
2018-07-12T02:07:58.432Z,0.00
2018-07-12T02:08:58.514Z,0.00
2018-07-12T02:09:58.479Z,0.00
2018-07-12T02:10:58.515Z,0.00
2018-07-12T02:11:58.530Z,0.00
2018-07-12T02:12:58.558Z,0.00
2018-07-12T02:13:58.579Z,0.00
2018-07-12T02:14:58.602Z,0.00
2018-07-12T02:15:58.639Z,0.00
2018-07-12T02:16:58.698Z,0.00
2018-07-12T02:17:58.722Z,0.00
2018-07-12T02:18:58.706Z,0.00
2018-07-12T02:19:58.734Z,0.00
2018-07-12T02:20:58.748Z,0.00
2018-07-12T02:22:58.815Z,0.00
2018-07-12T02:23:58.831Z,0.00
2018-07-12T02:24:58.856Z,0.00
2018-07-12T02:25:58.879Z,0.00
2018-07-12T02:26:58.908Z,0.00
2018-07-12T02:27:58.928Z,0.00
2018-07-12T02:28:58.950Z,0.00
2018-07-12T02:29:58.983Z,0.00
2018-07-12T02:30:59.011Z,0.00
2018-07-12T02:32:59.059Z,0.00
2018-07-12T02:33:59.087Z,0.00
2018-07-12T02:34:59.150Z,0.00
2018-07-12T02:35:59.130Z,0.00
2018-07-12T02:36:59.175Z,0.00
2018-07-12T02:37:59.184Z,0.00
2018-07-12T02:38:59.205Z,0.00
2018-07-12T02:39:59.234Z,0.00
2018-07-12T02:40:59.260Z,0.00
2018-07-12T02:41:59.279Z,0.00
2018-07-12T02:42:59.305Z,0.00
2018-07-12T02:43:59.334Z,0.00
2018-07-12T02:44:59.356Z,0.00
2018-07-12T02:45:59.383Z,0.00
2018-07-12T02:46:59.408Z,0.00
2018-07-12T02:47:59.434Z,0.00
2018-07-12T02:48:59.459Z,0.00
2018-07-12T02:49:59.485Z,0.00
2018-07-12T02:50:59.507Z,0.00
2018-07-12T02:51:59.533Z,0.00
2018-07-12T02:52:59.559Z,0.00
2018-07-12T02:53:59.585Z,0.00
2018-07-12T02:54:59.609Z,0.00
2018-07-12T02:55:59.645Z,0.00
2018-07-12T02:56:59.661Z,0.00
2018-07-12T02:57:59.695Z,0.00
2018-07-12T02:58:59.715Z,0.00
2018-07-12T02:59:59.734Z,0.00
2018-07-12T03:00:59.755Z,0.00
2018-07-12T03:01:59.781Z,0.00
2018-07-12T03:02:59.811Z,0.00
2018-07-12T03:03:59.831Z,0.00
2018-07-12T03:04:59.855Z,0.00
2018-07-12T03:05:59.881Z,0.00
2018-07-12T03:06:59.900Z,0.00
2018-07-12T03:07:59.929Z,0.00
2018-07-12T03:08:59.967Z,0.00
2018-07-12T03:09:59.982Z,0.00
2018-07-12T03:11:00.019Z,0.00
2018-07-12T03:12:00.032Z,0.00
2018-07-12T03:13:00.060Z,0.00
2018-07-12T03:14:00.080Z,0.00
2018-07-12T03:15:00.127Z,0.00
2018-07-12T03:16:00.131Z,0.00
2018-07-12T03:17:00.166Z,0.00
2018-07-12T03:18:00.177Z,0.00
2018-07-12T03:19:00.214Z,0.00
2018-07-12T03:20:00.221Z,0.00
2018-07-12T03:21:00.264Z,0.00
2018-07-12T03:22:00.288Z,0.00
2018-07-12T03:23:00.304Z,0.00
2018-07-12T03:24:00.332Z,0.00
2018-07-12T03:25:00.352Z,4.00
2018-07-12T03:26:00.395Z,4.00
2018-07-12T03:27:00.404Z,4.00
2018-07-12T03:28:00.432Z,0.00
2018-07-12T03:29:00.453Z,0.00
2018-07-12T03:30:00.482Z,4.00
2018-07-12T03:31:00.501Z,4.00
2018-07-12T03:32:00.522Z,4.00
2018-07-12T03:33:00.565Z,0.00
2018-07-12T03:34:00.577Z,4.00
2018-07-12T03:35:00.608Z,4.00
2018-07-12T03:36:00.625Z,4.00
2018-07-12T03:37:00.648Z,4.00
2018-07-12T03:38:00.681Z,4.00
2018-07-12T03:39:00.704Z,4.00
2018-07-12T03:40:00.729Z,4.00
2018-07-12T03:41:00.753Z,4.00
2018-07-12T03:42:00.768Z,4.00
2018-07-12T03:43:00.796Z,4.00
2018-07-12T03:44:00.832Z,4.00
2018-07-12T03:45:00.850Z,4.00
2018-07-12T03:46:00.871Z,8.00
2018-07-12T03:47:00.904Z,8.00
2018-07-12T03:48:00.930Z,8.00
2018-07-12T03:49:00.948Z,8.00
2018-07-12T03:50:00.974Z,8.00
2018-07-12T03:51:00.998Z,8.00
2018-07-12T03:52:01.022Z,8.00
2018-07-12T03:53:01.050Z,8.00
2018-07-12T03:54:01.068Z,4.00
2018-07-12T03:55:01.110Z,8.00
2018-07-12T03:56:01.124Z,4.00
2018-07-12T03:57:01.152Z,4.00
2018-07-12T03:58:01.209Z,4.00
2018-07-12T03:59:01.195Z,4.00
2018-07-12T04:00:01.221Z,4.00
2018-07-12T04:01:01.248Z,8.00
2018-07-12T04:02:01.272Z,4.00
2018-07-12T04:03:01.310Z,4.00
2018-07-12T04:04:01.324Z,8.00
2018-07-12T04:05:01.350Z,8.00
2018-07-12T04:06:01.368Z,8.00
2018-07-12T04:07:01.399Z,4.00
2018-07-12T04:08:01.421Z,8.00
2018-07-12T04:09:01.444Z,8.00
2018-07-12T04:10:01.464Z,12.00
2018-07-12T04:11:01.562Z,12.00
2018-07-12T04:12:01.519Z,12.00
2018-07-12T04:13:01.535Z,12.00
2018-07-12T04:14:01.582Z,12.00
2018-07-12T04:15:01.590Z,12.00
2018-07-12T04:16:01.623Z,12.00
2018-07-12T04:17:01.643Z,12.00
2018-07-12T04:18:01.668Z,12.00
2018-07-12T04:19:01.686Z,12.00
2018-07-12T04:20:01.716Z,12.00
2018-07-12T04:21:01.742Z,16.00
2018-07-12T04:22:01.767Z,12.00
2018-07-12T04:23:02.335Z,16.00
2018-07-12T04:24:01.811Z,16.00
2018-07-12T04:25:01.839Z,16.00
2018-07-12T04:26:01.859Z,16.00
2018-07-12T04:27:01.892Z,16.00
2018-07-12T04:28:01.916Z,16.00
2018-07-12T04:29:01.932Z,16.00
2018-07-12T04:30:01.969Z,20.00
2018-07-12T04:31:01.988Z,20.00
2018-07-12T04:32:02.009Z,24.00
2018-07-12T04:33:02.035Z,24.00
2018-07-12T04:34:02.054Z,28.00
2018-07-12T04:35:02.088Z,28.00
2018-07-12T04:36:02.112Z,24.00
2018-07-12T04:37:02.135Z,28.00
2018-07-12T04:38:02.154Z,28.00
2018-07-12T04:39:02.180Z,28.00
2018-07-12T04:40:02.208Z,28.00
2018-07-12T04:41:02.226Z,32.00
2018-07-12T04:42:02.254Z,32.00
2018-07-12T04:43:02.285Z,28.00
2018-07-12T04:44:02.304Z,28.00
2018-07-12T04:45:02.330Z,28.00
2018-07-12T04:46:02.357Z,28.00
2018-07-12T04:47:02.386Z,28.00
2018-07-12T04:48:02.408Z,32.00
2018-07-12T04:49:02.436Z,32.00
2018-07-12T04:50:02.483Z,36.00
2018-07-12T04:51:02.488Z,36.00
2018-07-12T04:52:02.500Z,40.00
2018-07-12T04:53:02.532Z,40.00
2018-07-12T04:54:02.555Z,44.00
2018-07-12T04:55:02.576Z,44.00
2018-07-12T04:56:02.600Z,48.00
2018-07-12T04:57:02.621Z,48.00
2018-07-12T04:58:02.682Z,52.00
2018-07-12T04:59:02.677Z,52.00
2018-07-12T05:00:02.752Z,56.00
2018-07-12T05:01:02.725Z,56.00
2018-07-12T05:02:02.749Z,60.00
2018-07-12T05:03:02.769Z,60.00
2018-07-12T05:04:02.799Z,60.00
2018-07-12T05:05:02.820Z,64.00
2018-07-12T05:06:02.851Z,60.00
2018-07-12T05:07:02.868Z,60.00
2018-07-12T05:08:02.930Z,60.00
2018-07-12T05:09:02.924Z,56.00
2018-07-12T05:10:02.943Z,52.00
2018-07-12T05:11:02.976Z,56.00
2018-07-12T05:12:02.994Z,56.00
2018-07-12T05:13:03.017Z,56.00
2018-07-12T05:14:03.041Z,60.00
2018-07-12T05:15:03.069Z,60.00
2018-07-12T05:16:03.092Z,56.00
2018-07-12T05:17:03.118Z,60.00
2018-07-12T05:18:03.144Z,64.00
2018-07-12T05:19:03.201Z,64.00
2018-07-12T05:20:03.194Z,64.00
2018-07-12T05:21:03.215Z,64.00
2018-07-12T05:22:03.369Z,68.00
2018-07-12T05:23:03.263Z,68.00
2018-07-12T05:24:03.288Z,68.00
2018-07-12T05:25:03.312Z,68.00
2018-07-12T05:26:03.337Z,72.00
2018-07-12T05:27:03.366Z,72.00
2018-07-12T05:28:03.394Z,72.00
2018-07-12T05:29:03.412Z,72.00
2018-07-12T05:30:03.439Z,64.00
2018-07-12T05:31:03.459Z,68.00
2018-07-12T05:32:03.479Z,64.00
2018-07-12T05:33:03.501Z,60.00
2018-07-12T05:34:03.534Z,52.00
2018-07-12T05:35:03.558Z,52.00
2018-07-12T05:36:03.595Z,52.00
2018-07-12T05:37:03.608Z,48.00
2018-07-12T05:38:03.622Z,44.00
2018-07-12T05:39:03.704Z,40.00
2018-07-12T05:40:03.673Z,40.00
2018-07-12T05:41:03.710Z,40.00
2018-07-12T05:42:03.723Z,48.00
2018-07-12T05:43:03.756Z,48.00
2018-07-12T05:44:03.792Z,52.00
2018-07-12T05:45:03.799Z,52.00
2018-07-12T05:46:03.841Z,52.00
2018-07-12T05:47:03.851Z,56.00
2018-07-12T05:48:03.879Z,56.00
2018-07-12T05:49:03.901Z,56.00
2018-07-12T05:50:03.927Z,56.00
2018-07-12T05:51:03.954Z,56.00
2018-07-12T05:52:03.979Z,56.00
2018-07-12T05:53:04.008Z,52.00
2018-07-12T05:54:04.026Z,60.00
2018-07-12T05:55:04.052Z,56.00
2018-07-12T05:56:04.075Z,60.00
2018-07-12T05:57:04.097Z,56.00
2018-07-12T05:58:04.123Z,56.00
2018-07-12T05:59:04.151Z,48.00
2018-07-12T06:00:04.180Z,48.00
2018-07-12T06:01:04.197Z,44.00
2018-07-12T06:02:04.283Z,48.00
2018-07-12T06:03:04.256Z,44.00
2018-07-12T06:04:04.282Z,40.00
2018-07-12T06:05:04.299Z,40.00
2018-07-12T06:06:04.317Z,40.00
2018-07-12T06:07:04.346Z,40.00
2018-07-12T06:08:04.383Z,44.00
2018-07-12T06:09:04.388Z,44.00
2018-07-12T06:10:04.420Z,48.00
2018-07-12T06:11:04.447Z,56.00
2018-07-12T06:12:04.481Z,56.00
2018-07-12T06:13:04.522Z,64.00
2018-07-12T06:14:04.518Z,72.00
2018-07-12T06:15:04.581Z,76.00
2018-07-12T06:16:04.578Z,88.00
2018-07-12T06:17:04.593Z,92.00
2018-07-12T06:18:04.615Z,100.00
2018-07-12T06:19:04.639Z,104.00
2018-07-12T06:20:04.672Z,108.00
2018-07-12T06:21:04.691Z,112.00
2018-07-12T06:22:04.715Z,120.00
2018-07-12T06:23:04.781Z,116.00
2018-07-12T06:24:04.761Z,116.00
2018-07-12T06:25:04.780Z,120.00
2018-07-12T06:26:04.816Z,108.00
2018-07-12T06:27:04.843Z,104.00
2018-07-12T06:28:04.867Z,100.00
2018-07-12T06:29:04.882Z,100.00
2018-07-12T06:30:04.934Z,92.00
2018-07-12T06:31:04.929Z,88.00
2018-07-12T06:32:04.962Z,84.00
2018-07-12T06:33:04.986Z,76.00
2018-07-12T06:34:05.009Z,68.00
2018-07-12T06:35:05.035Z,64.00
2018-07-12T06:36:05.052Z,64.00
2018-07-12T06:37:05.095Z,60.00
2018-07-12T06:38:05.109Z,56.00
2018-07-12T06:39:05.132Z,52.00
2018-07-12T06:40:05.170Z,52.00
2018-07-12T06:41:05.176Z,48.00
2018-07-12T06:42:05.209Z,48.00
2018-07-12T06:43:05.245Z,48.00
2018-07-12T06:44:05.263Z,48.00
2018-07-12T06:45:05.276Z,52.00
2018-07-12T06:46:05.299Z,56.00
2018-07-12T06:47:05.332Z,56.00
2018-07-12T06:48:05.355Z,56.00
2018-07-12T06:49:05.377Z,56.00
2018-07-12T06:50:05.400Z,60.00
2018-07-12T06:51:05.437Z,64.00
2018-07-12T06:52:05.474Z,76.00
2018-07-12T06:53:05.478Z,84.00
2018-07-12T06:54:05.506Z,92.00
2018-07-12T06:55:05.532Z,92.00
2018-07-12T06:56:05.554Z,96.00
2018-07-12T06:57:05.580Z,92.00
2018-07-12T06:58:05.602Z,88.00
2018-07-12T06:59:06.390Z,84.00
2018-07-12T07:00:05.653Z,88.00
2018-07-12T07:01:05.686Z,88.00
2018-07-12T07:02:05.693Z,88.00
2018-07-12T07:03:05.732Z,84.00
2018-07-12T07:04:05.752Z,68.00
2018-07-12T07:05:05.801Z,60.00
2018-07-12T07:06:05.797Z,56.00
2018-07-12T07:07:05.822Z,52.00
2018-07-12T07:08:05.850Z,48.00
2018-07-12T07:09:05.877Z,44.00
2018-07-12T07:10:05.896Z,48.00
2018-07-12T07:11:05.924Z,52.00
2018-07-12T07:12:05.966Z,60.00
2018-07-12T07:13:05.976Z,68.00
2018-07-12T07:14:05.997Z,76.00
2018-07-12T07:15:06.023Z,84.00
2018-07-12T07:16:06.049Z,96.00
2018-07-12T07:17:06.072Z,96.00
2018-07-12T07:18:06.098Z,104.00
2018-07-12T07:19:06.125Z,112.00
2018-07-12T07:20:06.183Z,128.00
2018-07-12T07:21:06.174Z,144.00
2018-07-12T07:22:06.196Z,160.00
2018-07-12T07:23:06.217Z,172.00
2018-07-12T07:24:06.245Z,172.00
2018-07-12T07:25:06.902Z,176.00
2018-07-12T07:26:06.296Z,188.00
2018-07-12T07:27:06.330Z,204.00
2018-07-12T07:28:06.344Z,212.00
2018-07-12T07:29:06.372Z,208.00
2018-07-12T07:30:06.408Z,204.00
2018-07-12T07:31:06.423Z,212.00
2018-07-12T07:32:06.445Z,224.00
2018-07-12T07:33:06.472Z,220.00
2018-07-12T07:34:06.505Z,212.00
2018-07-12T07:35:06.531Z,216.00
2018-07-12T07:36:06.546Z,232.00
2018-07-12T07:37:06.568Z,248.00
2018-07-12T07:38:06.599Z,252.00
2018-07-12T07:39:06.626Z,260.00
2018-07-12T07:40:06.644Z,264.00
2018-07-12T07:41:06.674Z,276.00
2018-07-12T07:42:06.699Z,272.00
2018-07-12T07:43:06.785Z,264.00
2018-07-12T07:44:06.746Z,256.00
2018-07-12T07:45:06.774Z,268.00
2018-07-12T07:46:06.795Z,276.00
2018-07-12T07:47:06.820Z,288.00
2018-07-12T07:48:06.850Z,300.00
2018-07-12T07:49:06.887Z,308.00
2018-07-12T07:50:06.895Z,308.00
2018-07-12T07:51:06.923Z,312.00
2018-07-12T07:52:06.950Z,308.00
2018-07-12T07:53:06.977Z,308.00
2018-07-12T07:54:06.992Z,312.00
2018-07-12T07:55:07.021Z,304.00
2018-07-12T07:56:07.049Z,312.00
2018-07-12T07:57:07.149Z,316.00
2018-07-12T07:58:07.090Z,316.00
2018-07-12T07:59:07.121Z,316.00
2018-07-12T08:00:07.149Z,312.00
2018-07-12T08:01:07.173Z,316.00
2018-07-12T08:02:07.198Z,316.00
2018-07-12T08:03:07.919Z,320.00
2018-07-12T08:04:07.251Z,316.00
2018-07-12T08:05:07.272Z,320.00
2018-07-12T08:06:07.300Z,320.00
2018-07-12T08:07:07.328Z,312.00
2018-07-12T08:08:07.352Z,296.00
2018-07-12T08:09:07.366Z,288.00
2018-07-12T08:10:07.401Z,272.00
2018-07-12T08:11:07.425Z,272.00
2018-07-12T08:12:07.442Z,264.00
2018-07-12T08:13:07.477Z,260.00
2018-07-12T08:14:07.506Z,260.00
2018-07-12T08:15:07.526Z,256.00
2018-07-12T08:16:07.576Z,252.00
2018-07-12T08:17:07.580Z,252.00
2018-07-12T08:18:07.600Z,244.00
2018-07-12T08:19:07.634Z,236.00
2018-07-12T08:20:07.655Z,228.00
2018-07-12T08:21:07.697Z,224.00
2018-07-12T08:22:07.720Z,216.00
2018-07-12T08:23:07.737Z,208.00
2018-07-12T08:24:07.765Z,204.00
2018-07-12T08:25:07.782Z,200.00
2018-07-12T08:26:07.807Z,200.00
2018-07-12T08:27:07.830Z,196.00
2018-07-12T08:28:07.857Z,192.00
2018-07-12T08:29:07.887Z,192.00
2018-07-12T08:30:07.907Z,184.00
2018-07-12T08:31:07.971Z,184.00
2018-07-12T08:32:07.957Z,184.00
2018-07-12T08:33:07.997Z,180.00
2018-07-12T08:34:08.010Z,184.00
2018-07-12T08:35:08.033Z,184.00
2018-07-12T08:36:08.070Z,184.00
2018-07-12T08:37:08.088Z,188.00
2018-07-12T08:38:08.116Z,188.00
2018-07-12T08:39:08.137Z,200.00
2018-07-12T08:40:08.159Z,196.00
2018-07-12T08:41:08.191Z,196.00
2018-07-12T08:42:08.213Z,204.00
2018-07-12T08:43:08.243Z,208.00
2018-07-12T08:44:08.262Z,212.00
2018-07-12T08:45:08.296Z,216.00
2018-07-12T08:46:08.370Z,224.00
2018-07-12T08:47:08.345Z,228.00
2018-07-12T08:48:08.364Z,232.00
2018-07-12T08:49:08.395Z,236.00
2018-07-12T08:50:08.423Z,244.00
2018-07-12T08:51:08.449Z,256.00
2018-07-12T08:52:08.474Z,268.00
2018-07-12T08:53:08.502Z,280.00
2018-07-12T08:54:08.522Z,324.00
2018-07-12T08:55:08.545Z,392.00
2018-07-12T08:56:08.578Z,384.00
2018-07-12T08:57:08.606Z,420.00
2018-07-12T08:58:08.632Z,436.00
2018-07-12T08:59:08.654Z,424.00
2018-07-12T09:00:08.683Z,416.00
2018-07-12T09:01:08.713Z,408.00
2018-07-12T09:02:08.730Z,400.00
2018-07-12T09:03:08.756Z,392.00
2018-07-12T09:04:08.778Z,392.00
2018-07-12T09:05:08.808Z,376.00
2018-07-12T09:06:08.842Z,384.00
2018-07-12T09:07:08.872Z,376.00
2018-07-12T09:08:08.884Z,380.00
2018-07-12T09:09:08.916Z,384.00
2018-07-12T09:10:08.945Z,388.00
2018-07-12T09:11:08.967Z,360.00
2018-07-12T09:12:08.999Z,388.00
2018-07-12T09:13:09.017Z,396.00
2018-07-12T09:14:09.041Z,384.00
2018-07-12T09:15:09.069Z,388.00
2018-07-12T09:16:09.102Z,388.00
2018-07-12T09:17:09.123Z,392.00
2018-07-12T09:18:09.147Z,404.00
2018-07-12T09:19:09.175Z,376.00
2018-07-12T09:20:09.199Z,420.00
2018-07-12T09:21:09.227Z,428.00
2018-07-12T09:22:09.249Z,428.00
2018-07-12T09:23:09.280Z,372.00
2018-07-12T09:24:09.303Z,344.00
2018-07-12T09:25:09.340Z,340.00
2018-07-12T09:26:09.365Z,356.00
2018-07-12T09:27:09.388Z,380.00
2018-07-12T09:28:09.419Z,440.00
2018-07-12T09:29:09.446Z,392.00
2018-07-12T09:30:09.461Z,404.00
2018-07-12T09:31:09.485Z,392.00
2018-07-12T09:32:09.520Z,380.00
2018-07-12T09:33:09.536Z,380.00
2018-07-12T09:34:09.566Z,376.00
2018-07-12T09:35:09.605Z,372.00
2018-07-12T09:36:09.688Z,368.00
2018-07-12T09:37:09.745Z,368.00
2018-07-12T09:38:09.670Z,372.00
2018-07-12T09:39:09.700Z,384.00
2018-07-12T09:40:09.731Z,416.00
2018-07-12T09:41:09.758Z,448.00
2018-07-12T09:42:09.782Z,500.00
2018-07-12T09:43:09.807Z,440.00
2018-07-12T09:44:09.855Z,440.00
2018-07-12T09:45:09.862Z,532.00
2018-07-12T09:46:09.886Z,604.00
2018-07-12T09:47:10.493Z,624.00
2018-07-12T09:48:09.937Z,636.00
2018-07-12T09:49:10.046Z,616.00
2018-07-12T09:50:09.990Z,544.00
2018-07-12T09:51:10.036Z,600.00
2018-07-12T09:52:10.056Z,588.00
2018-07-12T09:53:10.085Z,576.00
2018-07-12T09:54:10.108Z,612.00
2018-07-12T09:55:10.132Z,536.00
2018-07-12T09:56:10.290Z,488.00
2018-07-12T09:57:10.187Z,476.00
2018-07-12T09:58:10.209Z,476.00
2018-07-12T09:59:10.246Z,476.00
2018-07-12T10:00:10.268Z,472.00
2018-07-12T10:01:10.301Z,496.00
2018-07-12T10:02:10.323Z,484.00
2018-07-12T10:03:10.345Z,456.00
2018-07-12T10:04:10.373Z,408.00
2018-07-12T10:05:10.395Z,356.00
2018-07-12T10:06:10.421Z,308.00
2018-07-12T10:07:10.459Z,280.00
2018-07-12T10:08:10.983Z,260.00
2018-07-12T10:09:10.500Z,244.00
2018-07-12T10:10:10.533Z,224.00
2018-07-12T10:11:10.574Z,216.00
2018-07-12T10:12:10.593Z,204.00
2018-07-12T10:13:10.615Z,196.00
2018-07-12T10:14:10.639Z,188.00
2018-07-12T10:15:10.671Z,184.00
2018-07-12T10:16:10.700Z,176.00
2018-07-12T10:17:10.731Z,172.00
2018-07-12T10:18:10.756Z,168.00
2018-07-12T10:19:10.840Z,164.00
2018-07-12T10:20:10.801Z,164.00
2018-07-12T10:21:10.841Z,160.00
2018-07-12T10:22:10.854Z,164.00
2018-07-12T10:23:10.890Z,168.00
2018-07-12T10:24:10.913Z,172.00
2018-07-12T10:25:10.951Z,176.00
2018-07-12T10:26:10.992Z,188.00
2018-07-12T10:27:10.996Z,200.00
2018-07-12T10:28:11.022Z,220.00
2018-07-12T10:29:11.042Z,236.00
2018-07-12T10:30:11.076Z,252.00
2018-07-12T10:31:11.101Z,276.00
2018-07-12T10:32:11.125Z,288.00
2018-07-12T10:33:11.169Z,308.00
2018-07-12T10:34:11.191Z,344.00
2018-07-12T10:35:11.207Z,400.00
2018-07-12T10:36:11.242Z,492.00
2018-07-12T10:37:11.272Z,476.00
2018-07-12T10:38:11.294Z,512.00
2018-07-12T10:39:11.321Z,576.00
2018-07-12T10:40:11.352Z,668.00
2018-07-12T10:41:11.371Z,704.00
2018-07-12T10:42:11.397Z,692.00
2018-07-12T10:43:11.432Z,668.00
2018-07-12T10:44:11.457Z,636.00
2018-07-12T10:45:11.490Z,672.00
2018-07-12T10:46:11.512Z,724.00
2018-07-12T10:47:11.538Z,764.00
2018-07-12T10:49:11.592Z,768.00
2018-07-12T10:50:11.618Z,764.00
2018-07-12T10:51:11.652Z,768.00
2018-07-12T10:52:11.673Z,692.00
2018-07-12T10:53:11.704Z,664.00
2018-07-12T10:54:11.729Z,656.00
2018-07-12T10:55:11.757Z,612.00
2018-07-12T10:56:11.784Z,564.00
2018-07-12T10:57:11.824Z,504.00
2018-07-12T10:58:11.845Z,468.00
2018-07-12T10:59:11.881Z,448.00
2018-07-12T11:00:11.909Z,464.00
2018-07-12T11:01:11.928Z,512.00
2018-07-12T11:02:11.953Z,492.00
2018-07-12T11:03:11.975Z,480.00
2018-07-12T11:04:12.008Z,436.00
2018-07-12T11:05:12.028Z,404.00
2018-07-12T11:06:12.066Z,404.00
2018-07-12T11:07:12.095Z,428.00
2018-07-12T11:08:12.122Z,464.00
2018-07-12T11:09:12.148Z,468.00
2018-07-12T11:10:12.168Z,456.00
2018-07-12T11:11:12.203Z,444.00
2018-07-12T11:12:12.231Z,476.00
2018-07-12T11:13:12.256Z,500.00
2018-07-12T11:14:12.288Z,548.00
2018-07-12T11:15:12.311Z,704.00
2018-07-12T11:16:12.333Z,588.00
2018-07-12T11:17:12.365Z,728.00
2018-07-12T11:18:12.395Z,768.00
2018-07-12T11:19:12.421Z,656.00
2018-07-12T11:20:12.443Z,676.00
2018-07-12T11:21:12.537Z,676.00
2018-07-12T11:22:12.499Z,800.00
2018-07-12T11:23:12.532Z,772.00
2018-07-12T11:24:12.558Z,720.00
2018-07-12T11:25:12.583Z,716.00
2018-07-12T11:26:12.617Z,740.00
2018-07-12T11:27:12.644Z,652.00
2018-07-12T11:28:12.726Z,548.00
2018-07-12T11:29:12.691Z,572.00
2018-07-12T11:30:12.755Z,776.00
2018-07-12T11:31:12.750Z,804.00
2018-07-12T11:32:12.793Z,696.00
2018-07-12T11:33:12.832Z,636.00
2018-07-12T11:34:12.839Z,504.00
2018-07-12T11:35:12.873Z,484.00
2018-07-12T11:36:12.949Z,488.00
2018-07-12T11:37:12.925Z,512.00
2018-07-12T11:38:12.947Z,512.00
2018-07-12T11:39:12.986Z,484.00
2018-07-12T11:40:13.067Z,488.00
2018-07-12T11:41:13.067Z,548.00
2018-07-12T11:42:13.085Z,564.00
2018-07-12T11:43:13.095Z,564.00
2018-07-12T11:44:13.112Z,564.00
2018-07-12T11:45:13.164Z,540.00
2018-07-12T11:46:13.176Z,720.00
2018-07-12T11:47:13.207Z,1248.00
2018-07-12T11:48:13.239Z,936.00
2018-07-12T11:49:13.263Z,1244.00
2018-07-12T11:50:13.290Z,1112.00
2018-07-12T11:51:13.329Z,1168.00
2018-07-12T11:52:13.358Z,1240.00
2018-07-12T11:53:13.377Z,1328.00
2018-07-12T11:54:13.408Z,1304.00
2018-07-12T11:55:13.432Z,1000.00
2018-07-12T11:56:13.467Z,784.00
2018-07-12T11:57:13.491Z,752.00
2018-07-12T11:58:13.525Z,1596.00
2018-07-12T11:59:13.541Z,1580.00
2018-07-12T12:00:13.575Z,1512.00
2018-07-12T12:01:13.610Z,1200.00
2018-07-12T12:02:13.630Z,812.00
2018-07-12T12:03:13.659Z,1376.00
2018-07-12T12:04:13.688Z,1472.00
2018-07-12T12:05:13.717Z,1004.00
2018-07-12T12:06:13.748Z,1324.00
2018-07-12T12:07:13.781Z,1184.00
2018-07-12T12:08:13.809Z,588.00
2018-07-12T12:09:13.838Z,548.00
2018-07-12T12:11:13.887Z,528.00
2018-07-12T12:12:13.920Z,524.00
2018-07-12T12:13:13.950Z,440.00
2018-07-12T12:14:13.984Z,408.00
2018-07-12T12:15:14.008Z,404.00
2018-07-12T12:16:14.052Z,380.00
2018-07-12T12:17:14.106Z,352.00
2018-07-12T12:18:14.088Z,348.00
2018-07-12T12:19:14.132Z,360.00
2018-07-12T12:20:14.177Z,348.00
2018-07-12T12:21:14.186Z,340.00
2018-07-12T12:22:14.211Z,320.00
2018-07-12T12:23:14.239Z,304.00
2018-07-12T12:24:14.278Z,296.00
2018-07-12T12:25:14.310Z,296.00
2018-07-12T12:26:14.325Z,312.00
2018-07-12T12:27:14.356Z,1052.00
2018-07-12T12:28:14.384Z,1124.00
2018-07-12T12:29:14.414Z,1216.00
2018-07-12T12:30:14.442Z,992.00
2018-07-12T12:31:14.463Z,528.00
2018-07-12T12:32:14.499Z,532.00
2018-07-12T12:33:14.536Z,564.00
2018-07-12T12:34:14.567Z,572.00
2018-07-12T12:35:14.587Z,628.00
2018-07-12T12:36:14.613Z,652.00
2018-07-12T12:37:14.646Z,484.00
2018-07-12T12:38:14.672Z,460.00
2018-07-12T12:39:14.700Z,448.00
2018-07-12T12:40:14.728Z,420.00
2018-07-12T12:41:14.771Z,400.00
2018-07-12T12:42:14.788Z,384.00
2018-07-12T12:43:14.817Z,372.00
2018-07-12T12:44:14.841Z,364.00
2018-07-12T12:45:14.877Z,356.00
2018-07-12T12:46:14.905Z,352.00
2018-07-12T12:47:14.936Z,352.00
2018-07-12T12:48:14.964Z,328.00
2018-07-12T12:49:14.992Z,336.00
2018-07-12T12:50:15.025Z,348.00
2018-07-12T12:51:15.045Z,364.00
2018-07-12T12:52:15.092Z,364.00
2018-07-12T12:53:15.110Z,360.00
2018-07-12T12:54:15.144Z,368.00
2018-07-12T12:55:15.164Z,376.00